createdAt,value
2023-04-07T00:00:16.282Z,14.50
2023-04-07T00:02:45.072Z,14.55
2023-04-07T00:05:13.498Z,13.65
2023-04-07T00:07:52.357Z,12.80
2023-04-07T00:10:25.687Z,13.88
2023-04-07T00:12:54.679Z,13.00
2023-04-07T00:15:23.169Z,13.57
2023-04-07T00:17:51.621Z,16.88
2023-04-07T00:20:19.696Z,13.48
2023-04-07T00:22:48.913Z,13.07
2023-04-07T00:25:17.406Z,13.85
2023-04-07T00:27:45.474Z,13.57
2023-04-07T00:30:15.740Z,13.98
2023-04-07T00:32:43.833Z,13.27
2023-04-07T00:35:14.108Z,15.35
2023-04-07T00:37:42.694Z,13.95
2023-04-07T00:40:11.164Z,13.70
2023-04-07T00:42:40.422Z,15.05
2023-04-07T00:45:10.299Z,13.10
2023-04-07T00:47:38.675Z,11.82
2023-04-07T00:50:08.244Z,12.63
2023-04-07T00:52:36.817Z,12.50
2023-04-07T00:55:06.269Z,12.15
2023-04-07T00:57:35.095Z,12.73
2023-04-07T01:00:04.307Z,13.30
2023-04-07T01:03:09.607Z,13.48
2023-04-07T01:06:01.514Z,12.32
2023-04-07T01:08:41.463Z,12.10
2023-04-07T01:11:30.859Z,11.38
2023-04-07T01:14:01.192Z,10.95
2023-04-07T01:16:55.165Z,12.07
2023-04-07T01:19:45.164Z,10.63
2023-04-07T01:22:18.086Z,11.13
2023-04-07T01:25:15.132Z,11.37
2023-04-07T01:28:02.746Z,11.60
2023-04-07T01:30:35.622Z,13.10
2023-04-07T01:33:06.557Z,13.37
2023-04-07T01:35:37.293Z,13.68
2023-04-07T01:38:06.703Z,14.10
2023-04-07T01:40:36.949Z,13.45
2023-04-07T01:43:06.704Z,14.95
2023-04-07T01:45:37.415Z,15.85
2023-04-07T01:48:07.854Z,12.10
2023-04-07T01:50:36.771Z,12.73
2023-04-07T01:53:06.285Z,12.32
2023-04-07T01:55:35.647Z,12.13
2023-04-07T01:58:08.182Z,10.70
2023-04-07T02:00:39.439Z,10.18
2023-04-07T02:03:22.325Z,11.50
2023-04-07T02:05:56.168Z,10.10
2023-04-07T02:08:31.162Z,10.63
2023-04-07T02:11:04.086Z,10.90
2023-04-07T02:13:38.933Z,12.55
2023-04-07T02:16:34.294Z,12.63
2023-04-07T02:19:03.767Z,12.85
2023-04-07T02:21:34.951Z,12.93
2023-04-07T02:24:06.691Z,12.15
2023-04-07T02:26:36.322Z,13.95
2023-04-07T02:29:05.296Z,13.65
2023-04-07T02:31:33.737Z,13.57
2023-04-07T02:34:02.489Z,13.23
2023-04-07T02:36:31.406Z,11.23
2023-04-07T02:39:00.497Z,12.35
2023-04-07T02:41:28.808Z,12.10
2023-04-07T02:43:57.441Z,13.13
2023-04-07T02:46:26.120Z,14.05
2023-04-07T02:48:54.544Z,13.68
2023-04-07T02:51:23.205Z,13.55
2023-04-07T02:53:51.661Z,15.13
2023-04-07T02:56:21.266Z,12.82
2023-04-07T02:58:49.281Z,13.63
2023-04-07T03:01:18.424Z,13.95
2023-04-07T03:03:48.092Z,12.27
2023-04-07T03:06:27.336Z,11.75
2023-04-07T03:09:10.155Z,11.10
2023-04-07T03:11:38.720Z,10.05
2023-04-07T03:14:07.304Z,9.90
2023-04-07T03:16:43.192Z,8.95
2023-04-07T03:19:14.209Z,9.90
2023-04-07T03:21:45.696Z,10.90
2023-04-07T03:24:14.051Z,10.43
2023-04-07T03:26:42.205Z,10.18
2023-04-07T03:29:20.104Z,9.27
2023-04-07T03:31:48.194Z,9.23
2023-04-07T03:34:19.589Z,8.50
2023-04-07T03:36:48.427Z,9.52
2023-04-07T03:39:17.075Z,11.25
2023-04-07T03:41:46.144Z,12.43
2023-04-07T03:44:14.898Z,13.23
2023-04-07T03:46:45.525Z,11.75
2023-04-07T03:49:14.839Z,13.77
2023-04-07T03:51:43.864Z,13.60
2023-04-07T03:54:16.603Z,9.27
2023-04-07T03:56:46.433Z,14.27
2023-04-07T03:59:17.224Z,14.77
2023-04-07T04:02:02.203Z,14.40
2023-04-07T04:04:30.684Z,14.15
2023-04-07T04:06:59.729Z,13.43
2023-04-07T04:09:54.090Z,14.13
2023-04-07T04:12:23.043Z,13.77
2023-04-07T04:15:02.788Z,12.68
2023-04-07T04:17:32.195Z,10.45
2023-04-07T04:20:01.425Z,9.32
2023-04-07T04:22:45.225Z,9.43
2023-04-07T04:25:13.964Z,10.02
2023-04-07T04:27:46.622Z,11.65
2023-04-07T04:30:22.212Z,12.35
2023-04-07T04:32:57.880Z,11.50
2023-04-07T04:35:35.008Z,14.52
2023-04-07T04:38:12.535Z,15.38
2023-04-07T04:40:45.162Z,14.75
2023-04-07T04:43:15.537Z,13.73
2023-04-07T04:45:44.487Z,13.27
2023-04-07T04:48:15.886Z,13.00
2023-04-07T04:50:45.041Z,13.60
2023-04-07T04:53:14.730Z,14.90
2023-04-07T04:55:59.276Z,13.85
2023-04-07T04:58:42.331Z,10.95
2023-04-07T05:01:15.820Z,10.70
2023-04-07T05:03:53.483Z,11.45
2023-04-07T05:06:25.549Z,11.13
2023-04-07T05:08:54.257Z,11.50
2023-04-07T05:11:27.021Z,10.57
2023-04-07T05:13:57.479Z,11.13
2023-04-07T05:16:26.569Z,10.90
2023-04-07T05:18:56.510Z,10.50
2023-04-07T05:21:27.354Z,11.80
2023-04-07T05:23:59.866Z,12.18
2023-04-07T05:26:28.880Z,13.43
2023-04-07T05:28:57.112Z,15.60
2023-04-07T05:31:27.765Z,14.05
2023-04-07T05:34:00.081Z,15.50
2023-04-07T05:36:35.383Z,12.88
2023-04-07T05:39:04.151Z,11.02
2023-04-07T05:41:33.985Z,10.60
2023-04-07T05:44:04.024Z,11.45
2023-04-07T05:46:35.923Z,11.02
2023-04-07T05:49:19.024Z,11.27
2023-04-07T05:51:52.476Z,10.25
2023-04-07T05:54:20.959Z,10.88
2023-04-07T05:56:50.812Z,6.95
2023-04-07T05:59:19.364Z,8.48
2023-04-07T06:01:47.600Z,6.95
2023-04-07T06:04:16.270Z,8.48
2023-04-07T06:06:47.499Z,14.00
2023-04-07T06:09:16.423Z,12.23
2023-04-07T06:11:45.185Z,12.15
2023-04-07T06:14:14.603Z,13.52
2023-04-07T06:16:43.290Z,13.45
2023-04-07T06:19:11.702Z,14.23
2023-04-07T06:21:40.529Z,11.75
2023-04-07T06:24:08.650Z,9.55
2023-04-07T06:26:37.167Z,8.85
2023-04-07T06:29:06.152Z,7.30
2023-04-07T06:31:34.513Z,8.13
2023-04-07T06:34:03.713Z,7.78
2023-04-07T06:36:33.922Z,8.18
2023-04-07T06:39:02.131Z,7.10
2023-04-07T06:41:32.092Z,7.57
2023-04-07T06:44:00.428Z,7.05
2023-04-07T06:46:28.707Z,9.00
2023-04-07T06:48:57.372Z,9.05
2023-04-07T06:51:26.538Z,12.13
2023-04-07T06:53:54.643Z,14.55
2023-04-07T06:56:24.119Z,14.15
2023-04-07T06:58:52.817Z,16.45
2023-04-07T07:01:20.940Z,13.75
2023-04-07T07:03:49.275Z,10.68
2023-04-07T07:06:17.687Z,9.95
2023-04-07T07:08:46.396Z,9.13
2023-04-07T07:11:15.519Z,11.77
2023-04-07T07:13:45.166Z,10.57
2023-04-07T07:16:13.343Z,10.25
2023-04-07T07:18:41.486Z,9.82
2023-04-07T07:21:10.402Z,8.77
2023-04-07T07:23:38.866Z,8.88
2023-04-07T07:26:07.799Z,7.80
2023-04-07T07:28:36.021Z,8.55
2023-04-07T07:31:15.252Z,7.05
2023-04-07T07:33:46.140Z,7.70
2023-04-07T07:36:15.631Z,8.77
2023-04-07T07:38:44.581Z,8.00
2023-04-07T07:41:12.935Z,8.30
2023-04-07T07:43:41.230Z,9.00
2023-04-07T07:46:10.669Z,9.00
2023-04-07T07:48:39.358Z,9.82
2023-04-07T07:51:08.066Z,7.97
2023-04-07T07:53:36.455Z,7.97
2023-04-07T07:56:04.556Z,7.95
2023-04-07T07:58:33.500Z,8.20
2023-04-07T08:01:02.461Z,7.53
2023-04-07T08:03:31.487Z,7.57
2023-04-07T08:06:01.233Z,8.15
2023-04-07T08:08:29.301Z,6.50
2023-04-07T08:10:57.727Z,5.85
2023-04-07T08:13:25.741Z,6.05
2023-04-07T08:15:54.774Z,6.95
2023-04-07T08:18:23.389Z,6.43
2023-04-07T08:20:51.819Z,7.45
2023-04-07T08:23:20.346Z,8.57
2023-04-07T08:25:49.355Z,8.57
2023-04-07T08:28:18.019Z,8.73
2023-04-07T08:30:46.032Z,9.63
2023-04-07T08:33:14.113Z,8.02
2023-04-07T08:35:42.688Z,7.65
2023-04-07T08:38:11.286Z,6.78
2023-04-07T08:40:40.376Z,7.18
2023-04-07T08:43:10.959Z,6.80
2023-04-07T08:45:42.365Z,6.53
2023-04-07T08:48:18.148Z,6.28
2023-04-07T08:50:46.709Z,6.53
2023-04-07T08:53:21.254Z,6.80
2023-04-07T08:55:50.116Z,6.53
2023-04-07T08:58:20.479Z,6.65
2023-04-07T09:00:49.433Z,7.35
2023-04-07T09:03:18.273Z,6.35
2023-04-07T09:05:46.657Z,5.63
2023-04-07T09:08:15.390Z,5.88
2023-04-07T09:10:43.517Z,5.28
2023-04-07T09:13:16.027Z,5.30
2023-04-07T09:15:44.456Z,5.07
2023-04-07T09:18:14.883Z,5.75
2023-04-07T09:21:03.959Z,6.13
2023-04-07T09:23:34.811Z,5.18
2023-04-07T09:26:21.506Z,5.85
2023-04-07T09:28:53.713Z,5.55
2023-04-07T09:31:45.229Z,4.68
2023-04-07T09:34:42.880Z,6.38
2023-04-07T09:37:23.325Z,6.35
2023-04-07T09:39:54.225Z,6.35
2023-04-07T09:42:22.562Z,5.65
2023-04-07T09:44:52.683Z,6.40
2023-04-07T09:47:29.442Z,6.20
2023-04-07T09:49:59.792Z,5.88
2023-04-07T09:52:52.622Z,5.13
2023-04-07T09:55:24.689Z,5.60
2023-04-07T09:57:55.537Z,6.10
2023-04-07T10:00:24.936Z,5.68
2023-04-07T10:02:53.705Z,5.53
2023-04-07T10:05:22.933Z,6.13
2023-04-07T10:07:51.673Z,6.15
2023-04-07T10:10:20.455Z,6.05
2023-04-07T10:12:50.785Z,5.20
2023-04-07T10:15:19.718Z,5.97
2023-04-07T10:17:49.609Z,5.60
2023-04-07T10:20:21.527Z,5.60
2023-04-07T10:22:52.728Z,5.53
2023-04-07T10:25:25.027Z,5.97
2023-04-07T10:28:03.341Z,5.83
2023-04-07T10:30:33.680Z,5.80
2023-04-07T10:33:02.708Z,5.93
2023-04-07T10:36:05.304Z,5.00
2023-04-07T10:38:34.550Z,5.40
2023-04-07T10:41:38.348Z,4.65
2023-04-07T10:46:45.681Z,5.55
2023-04-07T10:49:18.755Z,5.50
2023-04-07T10:52:13.374Z,5.07
2023-04-07T10:54:41.771Z,4.70
2023-04-07T10:57:17.212Z,4.93
2023-04-07T11:00:12.823Z,5.35
2023-04-07T11:02:41.630Z,5.20
2023-04-07T11:05:21.850Z,4.97
2023-04-07T11:07:53.643Z,5.05
2023-04-07T11:10:23.167Z,5.35
2023-04-07T11:13:08.043Z,5.63
2023-04-07T11:15:40.475Z,5.70
2023-04-07T11:18:20.202Z,4.80
2023-04-07T11:20:53.806Z,5.70
2023-04-07T11:23:25.526Z,5.88
2023-04-07T11:26:03.528Z,6.30
2023-04-07T11:28:33.128Z,5.82
2023-04-07T11:31:01.266Z,5.88
2023-04-07T11:33:32.366Z,5.93
2023-04-07T11:36:03.429Z,5.30
2023-04-07T11:38:38.001Z,5.90
2023-04-07T11:41:16.340Z,5.47
2023-04-07T11:43:44.759Z,5.40
2023-04-07T11:46:15.786Z,6.38
2023-04-07T11:48:45.783Z,5.47
2023-04-07T11:51:19.887Z,6.00
2023-04-07T11:53:54.860Z,4.72
2023-04-07T11:56:23.772Z,5.03
2023-04-07T11:58:56.243Z,5.32
2023-04-07T12:01:39.126Z,5.07
2023-04-07T12:04:12.516Z,5.40
2023-04-07T12:06:42.753Z,4.50
2023-04-07T12:09:28.021Z,5.20
2023-04-07T12:11:57.896Z,5.18
2023-04-07T12:14:27.998Z,5.63
2023-04-07T12:16:58.403Z,5.13
2023-04-07T12:19:30.870Z,4.88
2023-04-07T12:21:59.308Z,5.30
2023-04-07T12:24:28.759Z,5.10
2023-04-07T12:26:58.334Z,4.88
2023-04-07T12:29:26.274Z,4.70
2023-04-07T12:31:54.968Z,7.38
2023-04-07T12:34:23.680Z,5.20
2023-04-07T12:36:51.764Z,4.43
2023-04-07T12:39:20.389Z,4.50
2023-04-07T12:41:49.595Z,5.22
2023-04-07T12:44:17.656Z,4.75
2023-04-07T12:46:47.042Z,4.80
2023-04-07T12:49:15.102Z,4.18
2023-04-07T12:51:43.141Z,4.35
2023-04-07T12:54:11.595Z,4.82
2023-04-07T12:56:41.935Z,4.18
2023-04-07T12:59:10.049Z,4.03
2023-04-07T13:01:39.546Z,4.38
2023-04-07T13:04:08.519Z,4.00
2023-04-07T13:06:36.899Z,3.97
2023-04-07T13:09:05.389Z,4.25
2023-04-07T13:11:33.498Z,4.65
2023-04-07T13:14:02.110Z,4.60
2023-04-07T13:16:30.986Z,4.38
2023-04-07T13:18:59.476Z,4.03
2023-04-07T13:21:45.464Z,4.43
2023-04-07T13:24:16.638Z,4.72
2023-04-07T13:26:45.580Z,4.60
2023-04-07T13:29:14.483Z,4.57
2023-04-07T13:31:43.788Z,4.25
2023-04-07T13:34:12.678Z,4.20
2023-04-07T13:36:42.282Z,4.45
2023-04-07T13:39:10.865Z,4.80
2023-04-07T13:41:39.417Z,4.40
2023-04-07T13:44:07.849Z,4.18
2023-04-07T13:46:35.837Z,5.00
2023-04-07T13:49:04.937Z,4.20
2023-04-07T13:51:33.055Z,3.95
2023-04-07T13:54:01.131Z,4.47
2023-04-07T13:56:29.253Z,4.65
2023-04-07T13:58:57.217Z,5.57
2023-04-07T14:01:25.547Z,4.10
2023-04-07T14:03:53.957Z,4.18
2023-04-07T14:06:23.143Z,4.43
2023-04-07T14:08:51.655Z,4.20
2023-04-07T14:11:20.005Z,4.80
2023-04-07T14:13:49.819Z,4.60
2023-04-07T14:16:18.973Z,4.47
2023-04-07T14:18:49.536Z,4.50
2023-04-07T14:21:17.795Z,4.10
2023-04-07T14:23:45.850Z,4.43
2023-04-07T14:26:14.381Z,4.45
2023-04-07T14:28:43.286Z,4.65
2023-04-07T14:31:16.249Z,4.55
2023-04-07T14:36:16.905Z,4.13
2023-04-07T14:38:45.482Z,4.15
2023-04-07T14:41:14.450Z,4.97
2023-04-07T14:43:43.710Z,5.00
2023-04-07T14:46:12.973Z,4.13
2023-04-07T14:48:41.247Z,4.78
2023-04-07T14:51:13.584Z,3.85
2023-04-07T14:53:43.824Z,3.88
2023-04-07T14:56:13.678Z,4.05
2023-04-07T14:58:41.756Z,3.67
2023-04-07T15:01:10.695Z,4.10
2023-04-07T15:03:39.234Z,4.28
2023-04-07T15:06:09.063Z,6.22
2023-04-07T15:08:37.624Z,6.05
2023-04-07T15:11:09.944Z,6.20
2023-04-07T15:13:38.438Z,3.67
2023-04-07T15:16:14.028Z,3.80
2023-04-07T15:18:45.031Z,3.50
2023-04-07T15:21:15.390Z,4.05
2023-04-07T15:23:43.554Z,3.40
2023-04-07T15:26:12.494Z,3.40
2023-04-07T15:28:40.897Z,4.10
2023-04-07T15:31:10.086Z,4.50
2023-04-07T15:33:40.114Z,3.70
2023-04-07T15:36:09.533Z,5.32
2023-04-07T15:38:39.565Z,3.90
2023-04-07T15:41:08.438Z,3.55
2023-04-07T15:43:37.641Z,4.00
2023-04-07T15:46:06.596Z,3.20
2023-04-07T15:48:34.766Z,3.70
2023-04-07T15:51:03.794Z,3.83
2023-04-07T15:53:32.850Z,3.30
2023-04-07T15:56:01.540Z,3.65
2023-04-07T15:58:31.471Z,3.65
2023-04-07T16:01:00.791Z,4.00
2023-04-07T16:03:30.022Z,3.30
2023-04-07T16:05:58.765Z,4.60
2023-04-07T16:08:26.904Z,3.28
2023-04-07T16:10:55.689Z,2.83
2023-04-07T16:13:23.827Z,4.00
2023-04-07T16:16:00.223Z,3.38
2023-04-07T16:18:30.255Z,3.15
2023-04-07T16:20:58.818Z,3.58
2023-04-07T16:23:27.106Z,3.08
2023-04-07T16:25:55.700Z,3.20
2023-04-07T16:28:23.780Z,3.15
2023-04-07T16:30:52.878Z,3.28
2023-04-07T16:33:21.012Z,4.22
2023-04-07T16:35:51.248Z,3.20
2023-04-07T16:38:19.920Z,3.00
2023-04-07T16:41:00.601Z,3.30
2023-04-07T16:43:32.269Z,2.95
2023-04-07T16:46:00.683Z,3.28
2023-04-07T16:48:29.273Z,3.15
2023-04-07T16:50:57.290Z,2.92
2023-04-07T16:53:26.088Z,3.10
2023-04-07T16:55:54.713Z,3.33
2023-04-07T16:58:22.797Z,2.85
2023-04-07T17:00:50.899Z,3.78
2023-04-07T17:03:19.637Z,2.50
2023-04-07T17:05:49.544Z,3.15
2023-04-07T17:08:17.755Z,3.30
2023-04-07T17:10:46.604Z,3.03
2023-04-07T17:13:14.517Z,5.82
2023-04-07T17:15:42.581Z,3.88
2023-04-07T17:18:11.192Z,3.47
2023-04-07T17:20:40.571Z,3.45
2023-04-07T17:23:10.468Z,3.75
2023-04-07T17:25:39.314Z,3.50
2023-04-07T17:28:07.798Z,3.88
2023-04-07T17:30:37.703Z,3.72
2023-04-07T17:33:08.320Z,4.63
2023-04-07T17:35:36.936Z,4.03
2023-04-07T17:38:06.851Z,4.53
2023-04-07T17:40:35.258Z,4.13
2023-04-07T17:43:03.731Z,4.35
2023-04-07T17:45:32.058Z,3.42
2023-04-07T17:48:01.826Z,3.97
2023-04-07T17:50:32.368Z,4.20
2023-04-07T17:53:01.154Z,4.72
2023-04-07T17:55:29.312Z,4.95
2023-04-07T17:58:01.001Z,4.30
2023-04-07T18:00:30.680Z,4.80
2023-04-07T18:03:00.145Z,4.45
2023-04-07T18:05:31.295Z,4.60
2023-04-07T18:07:59.847Z,4.75
2023-04-07T18:10:29.867Z,5.68
2023-04-07T18:12:58.626Z,5.97
2023-04-07T18:15:27.965Z,5.30
2023-04-07T18:17:56.525Z,5.40
2023-04-07T18:20:24.800Z,4.63
2023-04-07T18:22:55.592Z,5.30
2023-04-07T18:25:24.322Z,5.20
2023-04-07T18:27:53.503Z,5.40
2023-04-07T18:30:21.930Z,5.30
2023-04-07T18:32:50.086Z,11.82
2023-04-07T18:35:18.644Z,5.85
2023-04-07T18:37:47.377Z,6.10
2023-04-07T18:40:16.788Z,6.20
2023-04-07T18:42:44.964Z,7.13
2023-04-07T18:45:13.320Z,10.07
2023-04-07T18:47:41.636Z,7.57
2023-04-07T18:50:10.791Z,8.98
2023-04-07T18:52:39.652Z,9.55
2023-04-07T18:55:09.244Z,8.50
2023-04-07T18:57:39.653Z,7.68
2023-04-07T19:00:08.830Z,7.63
2023-04-07T19:02:44.385Z,8.10
2023-04-07T19:05:12.982Z,7.68
2023-04-07T19:07:42.044Z,7.30
2023-04-07T19:10:10.193Z,8.27
2023-04-07T19:12:38.681Z,7.78
2023-04-07T19:15:07.584Z,8.27
2023-04-07T19:17:37.427Z,7.60
2023-04-07T19:20:07.115Z,8.48
2023-04-07T19:22:36.401Z,7.70
2023-04-07T19:25:04.852Z,8.05
2023-04-07T19:27:33.475Z,8.07
2023-04-07T19:30:02.161Z,7.95
2023-04-07T19:32:31.611Z,8.60
2023-04-07T19:34:59.927Z,8.90
2023-04-07T19:37:29.272Z,7.18
2023-04-07T19:40:02.861Z,6.72
2023-04-07T19:42:32.477Z,6.88
2023-04-07T19:45:02.422Z,6.47
2023-04-07T19:47:31.766Z,6.50
2023-04-07T19:50:00.488Z,6.50
2023-04-07T19:52:32.161Z,6.97
2023-04-07T19:55:01.684Z,8.45
2023-04-07T19:57:31.605Z,7.35
2023-04-07T20:00:00.092Z,11.40
2023-04-07T20:02:28.602Z,15.07
2023-04-07T20:04:58.477Z,18.15
2023-04-07T20:07:27.347Z,23.42
2023-04-07T20:09:57.395Z,18.92
2023-04-07T20:12:25.715Z,14.13
2023-04-07T20:14:54.200Z,11.85
2023-04-07T20:17:22.624Z,12.15
2023-04-07T20:19:55.769Z,11.90
2023-04-07T20:22:24.301Z,11.98
2023-04-07T20:24:52.798Z,11.15
2023-04-07T20:27:21.551Z,12.20
2023-04-07T20:29:51.098Z,12.00
2023-04-07T20:32:19.727Z,12.23
2023-04-07T20:34:48.484Z,10.60
2023-04-07T20:37:17.327Z,10.45
2023-04-07T20:39:46.052Z,9.77
2023-04-07T20:42:14.978Z,10.50
2023-04-07T20:44:43.593Z,11.00
2023-04-07T20:47:12.801Z,9.95
2023-04-07T20:49:43.651Z,12.38
2023-04-07T20:52:11.788Z,10.88
2023-04-07T20:54:42.748Z,14.25
2023-04-07T20:57:11.721Z,14.93
2023-04-07T20:59:40.062Z,13.48
2023-04-07T21:02:09.059Z,15.52
2023-04-07T21:04:37.811Z,14.02
2023-04-07T21:07:06.477Z,12.60
2023-04-07T21:09:34.445Z,11.43
2023-04-07T21:12:03.920Z,10.30
2023-04-07T21:14:32.418Z,11.48
2023-04-07T21:17:00.695Z,11.88
2023-04-07T21:19:28.866Z,11.40
2023-04-07T21:21:56.885Z,11.27
2023-04-07T21:24:26.017Z,9.90
2023-04-07T21:26:55.152Z,8.35
2023-04-07T21:29:23.303Z,8.68
2023-04-07T21:32:16.288Z,8.80
2023-04-07T21:34:45.200Z,10.53
2023-04-07T21:37:13.817Z,16.27
2023-04-07T21:39:42.434Z,17.02
2023-04-07T21:42:10.377Z,11.68
2023-04-07T21:44:39.123Z,11.30
2023-04-07T21:47:08.129Z,8.50
2023-04-07T21:49:38.635Z,9.30
2023-04-07T21:52:07.871Z,12.48
2023-04-07T21:54:36.666Z,11.65
2023-04-07T21:57:04.861Z,10.02
2023-04-07T21:59:35.526Z,16.15
2023-04-07T22:02:04.599Z,11.43
2023-04-07T22:04:33.352Z,14.10
2023-04-07T22:07:02.043Z,12.77
2023-04-07T22:09:30.013Z,15.75
2023-04-07T22:11:58.566Z,18.15
2023-04-07T22:14:26.645Z,15.52
2023-04-07T22:16:55.830Z,15.18
2023-04-07T22:19:26.459Z,16.38
2023-04-07T22:21:54.821Z,14.95
2023-04-07T22:24:23.090Z,12.68
2023-04-07T22:26:53.984Z,9.73
2023-04-07T22:29:22.968Z,9.80
2023-04-07T22:31:51.084Z,10.38
2023-04-07T22:34:19.833Z,8.43
2023-04-07T22:36:48.036Z,8.82
2023-04-07T22:39:16.500Z,8.60
2023-04-07T22:41:44.680Z,7.47
2023-04-07T22:44:12.637Z,6.97
2023-04-07T22:46:40.619Z,6.88
2023-04-07T22:49:09.143Z,7.10
2023-04-07T22:51:38.038Z,6.32
2023-04-07T22:54:06.836Z,7.55
2023-04-07T22:56:35.470Z,6.03
2023-04-07T22:59:05.985Z,7.05
2023-04-07T23:01:34.340Z,5.63
2023-04-07T23:04:03.221Z,6.32
2023-04-07T23:06:32.259Z,6.05
2023-04-07T23:09:00.571Z,7.15
2023-04-07T23:11:28.523Z,6.65
2023-04-07T23:13:57.187Z,7.22
2023-04-07T23:16:26.520Z,6.68
2023-04-07T23:18:54.980Z,5.47
2023-04-07T23:21:23.608Z,4.75
2023-04-07T23:23:51.829Z,6.25
2023-04-07T23:26:19.971Z,5.95
2023-04-07T23:28:48.794Z,5.50
2023-04-07T23:31:17.693Z,7.10
2023-04-07T23:33:48.061Z,9.38
2023-04-07T23:36:16.178Z,10.65
2023-04-07T23:38:44.207Z,11.80
2023-04-07T23:41:12.743Z,10.15
2023-04-07T23:43:41.207Z,8.20
2023-04-07T23:46:10.263Z,10.18
2023-04-07T23:48:38.290Z,11.27
2023-04-07T23:51:07.052Z,9.93
2023-04-07T23:53:35.625Z,9.52
2023-04-07T23:56:04.173Z,10.70
2023-04-07T23:58:32.383Z,10.82
